createdAt,value
2022-12-18T00:01:19.975Z,-13.49
2022-12-18T00:03:47.155Z,-13.41
2022-12-18T00:06:15.494Z,-13.71
2022-12-18T00:08:43.172Z,-13.58
2022-12-18T00:11:12.868Z,-13.44
2022-12-18T00:13:40.364Z,-13.71
2022-12-18T00:16:10.330Z,-13.54
2022-12-18T00:18:38.226Z,-13.36
2022-12-18T00:21:08.086Z,-13.40
2022-12-18T00:23:37.242Z,-13.12
2022-12-18T00:26:07.355Z,-13.43
2022-12-18T00:28:34.893Z,-13.33
2022-12-18T00:31:10.677Z,-13.28
2022-12-18T00:33:38.512Z,-13.27
2022-12-18T00:36:08.402Z,-13.55
2022-12-18T00:38:36.046Z,-12.87
2022-12-18T00:41:03.112Z,-13.01
2022-12-18T00:43:29.872Z,-12.81
2022-12-18T00:45:56.832Z,-12.57
2022-12-18T00:48:23.541Z,-12.51
2022-12-18T00:50:51.222Z,-12.47
2022-12-18T00:53:18.687Z,-12.32
2022-12-18T00:55:46.529Z,-12.56
2022-12-18T00:58:15.265Z,-11.93
2022-12-18T01:00:42.431Z,-11.95
2022-12-18T01:03:14.671Z,-11.81
2022-12-18T01:05:43.106Z,-12.01
2022-12-18T01:08:09.998Z,-11.95
2022-12-18T01:10:36.734Z,-11.87
2022-12-18T01:13:03.768Z,-11.97
2022-12-18T01:15:30.454Z,-12.06
2022-12-18T01:17:57.151Z,-11.85
2022-12-18T01:20:27.228Z,-11.82
2022-12-18T01:22:56.194Z,-11.71
2022-12-18T01:25:22.884Z,-11.85
2022-12-18T01:27:50.947Z,-11.69
2022-12-18T01:30:17.739Z,-11.38
2022-12-18T01:32:45.712Z,-11.30
2022-12-18T01:35:12.419Z,-11.33
2022-12-18T01:37:39.000Z,-11.61
2022-12-18T01:40:06.681Z,-11.37
2022-12-18T01:42:33.389Z,-11.22
2022-12-18T01:45:03.174Z,-11.15
2022-12-18T01:47:38.955Z,-11.22
2022-12-18T01:50:13.794Z,-11.10
2022-12-18T01:52:45.892Z,-11.19
2022-12-18T01:55:13.936Z,-11.16
2022-12-18T01:57:41.431Z,-11.24
2022-12-18T02:00:15.563Z,-11.12
2022-12-18T02:02:45.162Z,-11.07
2022-12-18T02:05:16.489Z,-10.94
2022-12-18T02:08:20.564Z,-10.91
2022-12-18T02:11:07.603Z,-10.77
2022-12-18T02:13:47.414Z,-10.93
2022-12-18T02:16:30.570Z,-10.82
2022-12-18T02:19:05.019Z,-10.97
2022-12-18T02:22:04.339Z,-10.70
2022-12-18T02:24:51.261Z,-10.67
2022-12-18T02:27:19.392Z,-10.40
2022-12-18T02:29:57.869Z,-10.66
2022-12-18T02:32:36.757Z,-10.43
2022-12-18T02:35:06.933Z,-10.39
2022-12-18T02:37:36.257Z,-10.67
2022-12-18T02:40:06.881Z,-10.65
2022-12-18T02:42:36.102Z,-10.45
2022-12-18T02:45:06.149Z,-10.74
2022-12-18T02:47:38.958Z,-10.70
2022-12-18T02:50:17.943Z,-10.61
2022-12-18T02:53:05.977Z,-10.79
2022-12-18T02:55:46.649Z,-10.84
2022-12-18T02:58:21.949Z,-10.97
2022-12-18T03:01:42.142Z,-10.90
2022-12-18T03:04:25.058Z,-11.03
2022-12-18T03:06:59.126Z,-11.17
2022-12-18T03:09:33.900Z,-10.98
2022-12-18T03:12:24.863Z,-10.76
2022-12-18T03:15:39.411Z,-10.94
2022-12-18T03:18:17.556Z,-11.04
2022-12-18T03:20:47.127Z,-11.05
2022-12-18T03:23:26.294Z,-10.91
2022-12-18T03:26:00.852Z,-10.77
2022-12-18T03:28:37.719Z,-11.17
2022-12-18T03:31:06.803Z,-11.12
2022-12-18T03:33:42.555Z,-10.98
2022-12-18T03:36:09.801Z,-10.93
2022-12-18T03:38:36.680Z,-10.94
2022-12-18T03:41:18.977Z,-11.00
2022-12-18T03:44:48.720Z,-10.85
2022-12-18T03:47:42.019Z,-10.70
2022-12-18T03:50:12.991Z,-10.64
2022-12-18T03:53:02.114Z,-10.92
2022-12-18T03:55:34.444Z,-10.84
2022-12-18T03:58:07.738Z,-10.75
2022-12-18T04:00:52.608Z,-10.69
2022-12-18T04:03:25.499Z,-11.14
2022-12-18T04:05:55.155Z,-10.97
2022-12-18T04:08:23.326Z,-10.97
2022-12-18T04:11:01.006Z,-10.93
2022-12-18T04:13:37.567Z,-10.82
2022-12-18T04:16:08.501Z,-11.01
2022-12-18T04:18:35.637Z,-11.11
2022-12-18T04:21:02.986Z,-11.04
2022-12-18T04:23:29.631Z,-11.38
2022-12-18T04:25:58.676Z,-11.22
2022-12-18T04:28:48.426Z,-11.76
2022-12-18T04:31:15.880Z,-11.07
2022-12-18T04:33:42.942Z,-11.21
2022-12-18T04:36:10.510Z,-11.39
2022-12-18T04:38:37.634Z,-11.35
2022-12-18T04:41:08.530Z,-11.56
2022-12-18T04:43:36.006Z,-11.28
2022-12-18T04:46:07.714Z,-11.38
2022-12-18T04:48:34.976Z,-11.31
2022-12-18T04:51:03.051Z,-11.33
2022-12-18T04:53:29.724Z,-12.04
2022-12-18T04:56:12.834Z,-11.76
2022-12-18T04:58:40.777Z,-12.04
2022-12-18T05:01:08.577Z,-12.21
2022-12-18T05:03:36.306Z,-11.96
2022-12-18T05:06:03.860Z,-11.98
2022-12-18T05:08:30.833Z,-12.13
2022-12-18T05:11:05.376Z,-12.12
2022-12-18T05:13:32.457Z,-12.46
2022-12-18T05:16:02.078Z,-12.29
2022-12-18T05:18:29.966Z,-11.99
2022-12-18T05:20:56.831Z,-12.13
2022-12-18T05:23:25.058Z,-12.09
2022-12-18T05:25:59.986Z,-12.21
2022-12-18T05:28:28.223Z,-12.02
2022-12-18T05:30:59.262Z,-12.23
2022-12-18T05:33:29.473Z,-12.02
2022-12-18T05:35:58.218Z,-12.08
2022-12-18T05:38:29.082Z,-12.05
2022-12-18T05:40:55.915Z,-11.95
2022-12-18T05:43:23.858Z,-12.18
2022-12-18T05:45:51.959Z,-12.21
2022-12-18T05:48:22.567Z,-12.21
2022-12-18T05:50:50.677Z,-12.13
2022-12-18T05:53:20.286Z,-11.99
2022-12-18T05:55:47.743Z,-11.88
2022-12-18T05:58:15.409Z,-11.96
2022-12-18T06:00:46.845Z,-11.88
2022-12-18T06:03:14.496Z,-11.88
2022-12-18T06:05:44.539Z,-11.84
2022-12-18T06:08:12.414Z,-11.99
2022-12-18T06:10:39.638Z,-11.97
2022-12-18T06:13:07.200Z,-11.85
2022-12-18T06:15:34.128Z,-11.91
2022-12-18T06:18:02.278Z,-12.14
2022-12-18T06:20:33.200Z,-12.47
2022-12-18T06:23:00.432Z,-12.23
2022-12-18T06:25:27.165Z,-12.33
2022-12-18T06:27:53.880Z,-12.46
2022-12-18T06:30:20.565Z,-12.56
2022-12-18T06:32:54.664Z,-12.30
2022-12-18T06:35:23.251Z,-12.36
2022-12-18T06:37:49.888Z,-12.42
2022-12-18T06:40:17.366Z,-12.29
2022-12-18T06:42:44.007Z,-12.21
2022-12-18T06:45:10.989Z,-12.39
2022-12-18T06:47:37.664Z,-12.08
2022-12-18T06:50:04.536Z,-12.10
2022-12-18T06:52:33.176Z,-11.91
2022-12-18T06:54:59.813Z,-11.81
2022-12-18T06:57:26.416Z,-11.96
2022-12-18T06:59:53.031Z,-11.87
2022-12-18T07:02:19.830Z,-12.11
2022-12-18T07:04:46.628Z,-11.93
2022-12-18T07:07:13.229Z,-11.81
2022-12-18T07:09:39.850Z,-11.90
2022-12-18T07:12:07.768Z,-11.57
2022-12-18T07:14:34.831Z,-11.68
2022-12-18T07:17:01.472Z,-11.96
2022-12-18T07:19:28.207Z,-11.81
2022-12-18T07:21:55.929Z,-11.73
2022-12-18T07:24:22.568Z,-11.49
2022-12-18T07:26:49.396Z,-11.47
2022-12-18T07:29:16.288Z,-11.21
2022-12-18T07:31:43.135Z,-11.32
2022-12-18T07:34:14.810Z,-11.79
2022-12-18T07:36:41.728Z,-11.80
2022-12-18T07:39:08.596Z,-11.84
2022-12-18T07:41:35.250Z,-12.14
2022-12-18T07:44:11.607Z,-12.22
2022-12-18T07:46:38.261Z,-12.14
2022-12-18T07:49:04.839Z,-12.00
2022-12-18T07:51:31.498Z,-11.93
2022-12-18T07:53:58.184Z,-11.73
2022-12-18T07:56:29.568Z,-11.76
2022-12-18T07:58:57.483Z,-11.66
2022-12-18T08:01:24.878Z,-11.49
2022-12-18T08:03:52.219Z,-11.49
2022-12-18T08:06:22.590Z,-11.53
2022-12-18T08:08:54.996Z,-11.69
2022-12-18T08:11:22.688Z,-11.58
2022-12-18T08:13:49.484Z,-11.49
2022-12-18T08:16:16.763Z,-11.56
2022-12-18T08:18:43.490Z,-11.57
2022-12-18T08:21:14.416Z,-11.54
2022-12-18T08:23:44.012Z,-11.71
2022-12-18T08:26:12.327Z,-11.39
2022-12-18T08:28:40.000Z,-11.63
2022-12-18T08:31:07.418Z,-11.51
2022-12-18T08:33:35.311Z,-11.67
2022-12-18T08:36:03.345Z,-11.44
2022-12-18T08:38:30.043Z,-11.55
2022-12-18T08:41:01.512Z,-11.47
2022-12-18T08:43:47.316Z,-11.39
2022-12-18T08:46:14.172Z,-11.23
2022-12-18T08:48:40.829Z,-11.61
2022-12-18T08:51:07.706Z,-11.32
2022-12-18T08:53:35.881Z,-10.97
2022-12-18T08:56:03.767Z,-10.67
2022-12-18T08:58:30.890Z,-11.06
2022-12-18T09:01:04.777Z,-11.34
2022-12-18T09:03:32.263Z,-11.22
2022-12-18T09:05:59.043Z,-10.69
2022-12-18T09:08:25.642Z,-10.68
2022-12-18T09:10:52.472Z,-10.57
2022-12-18T09:13:19.842Z,-10.44
2022-12-18T09:15:54.480Z,-10.59
2022-12-18T09:18:23.412Z,-10.66
2022-12-18T09:20:51.202Z,-10.66
2022-12-18T09:23:17.796Z,-10.36
2022-12-18T09:25:44.381Z,-10.28
2022-12-18T09:28:13.772Z,-10.54
2022-12-18T09:30:44.290Z,-10.56
2022-12-18T09:33:10.945Z,-10.24
2022-12-18T09:35:38.354Z,-10.13
2022-12-18T09:38:05.498Z,-10.40
2022-12-18T09:40:41.019Z,-9.57
2022-12-18T09:43:16.706Z,-9.73
2022-12-18T09:45:47.946Z,-9.84
2022-12-18T09:48:25.633Z,-9.81
2022-12-18T09:50:55.434Z,-9.65
2022-12-18T09:53:27.420Z,-9.87
2022-12-18T09:55:55.711Z,-9.81
2022-12-18T09:58:31.687Z,-10.18
2022-12-18T10:00:58.440Z,-9.84
2022-12-18T10:03:25.113Z,-10.11
2022-12-18T10:06:16.419Z,-9.63
2022-12-18T10:08:45.975Z,-9.53
2022-12-18T10:11:47.956Z,-9.77
2022-12-18T10:14:17.447Z,-9.66
2022-12-18T10:17:07.352Z,-9.58
2022-12-18T10:19:39.504Z,-9.77
2022-12-18T10:22:27.716Z,-9.59
2022-12-18T10:25:02.674Z,-9.38
2022-12-18T10:27:32.821Z,-9.28
2022-12-18T10:30:02.051Z,-9.08
2022-12-18T10:32:31.162Z,-9.00
2022-12-18T10:35:00.661Z,-8.98
2022-12-18T10:37:30.665Z,-8.88
2022-12-18T10:40:16.658Z,-8.80
2022-12-18T10:42:46.747Z,-8.67
2022-12-18T10:45:20.876Z,-8.67
2022-12-18T10:47:50.456Z,-8.74
2022-12-18T10:51:09.784Z,-8.89
2022-12-18T10:53:28.162Z,-8.84
2022-12-18T10:55:58.750Z,-8.53
2022-12-18T10:58:32.540Z,-8.17
2022-12-18T11:01:02.221Z,-8.25
2022-12-18T11:03:37.118Z,-8.42
2022-12-18T11:06:25.634Z,-8.43
2022-12-18T11:09:22.873Z,-8.57
2022-12-18T11:12:19.019Z,-8.29
2022-12-18T11:14:49.909Z,-8.61
2022-12-18T11:17:36.750Z,-8.36
2022-12-18T11:20:07.934Z,-8.36
2022-12-18T11:22:37.282Z,-8.38
2022-12-18T11:25:35.360Z,-8.28
2022-12-18T11:28:23.815Z,-8.02
2022-12-18T11:30:50.763Z,-7.87
2022-12-18T11:33:22.591Z,-7.62
2022-12-18T11:35:56.908Z,-7.24
2022-12-18T11:38:26.470Z,-7.43
2022-12-18T11:41:04.858Z,-7.18
2022-12-18T11:43:42.069Z,-7.01
2022-12-18T11:46:19.586Z,-6.98
2022-12-18T11:49:08.553Z,-7.54
2022-12-18T11:52:03.778Z,-7.10
2022-12-18T11:54:30.389Z,-7.30
2022-12-18T11:57:05.145Z,-7.56
2022-12-18T11:59:50.628Z,-7.24
2022-12-18T12:02:39.920Z,-7.05
2022-12-18T12:05:28.351Z,-7.02
2022-12-18T12:08:13.880Z,-7.38
2022-12-18T12:10:49.587Z,-7.42
2022-12-18T12:13:28.522Z,-7.51
2022-12-18T12:16:38.545Z,-7.56
2022-12-18T12:19:27.397Z,-7.47
2022-12-18T12:22:23.241Z,-7.31
2022-12-18T12:24:52.881Z,-7.42
2022-12-18T12:27:26.389Z,-7.31
2022-12-18T12:29:52.934Z,-7.19
2022-12-18T12:32:46.019Z,-7.21
2022-12-18T12:35:29.567Z,-6.87
2022-12-18T12:38:08.438Z,-6.86
2022-12-18T12:40:52.599Z,-7.08
2022-12-18T12:43:34.037Z,-6.91
2022-12-18T12:46:12.405Z,-6.94
2022-12-18T12:48:53.890Z,-6.69
2022-12-18T12:51:36.050Z,-6.89
2022-12-18T12:54:06.845Z,-6.61
2022-12-18T12:57:08.060Z,-6.42
2022-12-18T12:59:48.335Z,-6.15
2022-12-18T13:02:34.526Z,-6.01
2022-12-18T13:05:32.430Z,-6.28
2022-12-18T13:08:04.179Z,-6.23
2022-12-18T13:10:42.470Z,-6.15
2022-12-18T13:13:17.184Z,-5.83
2022-12-18T13:15:49.334Z,-5.71
2022-12-18T13:18:23.536Z,-5.71
2022-12-18T13:20:58.590Z,-6.35
2022-12-18T13:23:28.055Z,-5.63
2022-12-18T13:26:00.368Z,-5.65
2022-12-18T13:28:48.920Z,-5.37
2022-12-18T13:31:24.488Z,-5.31
2022-12-18T13:34:24.686Z,-5.55
2022-12-18T13:36:38.628Z,-5.73
2022-12-18T13:39:28.604Z,-5.53
2022-12-18T13:42:05.550Z,-5.73
2022-12-18T13:44:42.446Z,-5.71
2022-12-18T13:47:33.774Z,-5.98
2022-12-18T13:50:01.079Z,-6.20
2022-12-18T13:52:34.465Z,-6.61
2022-12-18T13:55:03.832Z,-6.38
2022-12-18T13:57:32.971Z,-6.75
2022-12-18T14:00:23.496Z,-6.35
2022-12-18T14:02:51.360Z,-6.49
2022-12-18T14:05:41.037Z,-6.87
2022-12-18T14:08:14.848Z,-6.57
2022-12-18T14:10:49.723Z,-6.49
2022-12-18T14:13:24.728Z,-6.53
2022-12-18T14:15:51.901Z,-6.49
2022-12-18T14:18:24.880Z,-6.64
2022-12-18T14:20:54.189Z,-6.76
2022-12-18T14:23:36.037Z,-6.83
2022-12-18T14:26:20.024Z,-6.72
2022-12-18T14:28:47.055Z,-7.35
2022-12-18T14:31:26.356Z,-7.20
2022-12-18T14:33:54.153Z,-7.12
2022-12-18T14:36:26.957Z,-7.48
2022-12-18T14:38:56.556Z,-7.54
2022-12-18T14:41:24.965Z,-7.78
2022-12-18T14:43:53.928Z,-7.31
2022-12-18T14:46:38.457Z,-7.46
2022-12-18T14:49:33.810Z,-7.48
2022-12-18T14:52:03.729Z,-8.15
2022-12-18T14:54:32.643Z,-7.45
2022-12-18T14:57:05.536Z,-7.42
2022-12-18T14:59:33.244Z,-7.52
2022-12-18T15:02:03.039Z,-7.45
2022-12-18T15:04:40.583Z,-7.46
2022-12-18T15:07:20.541Z,-7.61
2022-12-18T15:10:12.469Z,-8.53
2022-12-18T15:12:43.346Z,-8.21
2022-12-18T15:15:35.197Z,-7.81
2022-12-18T15:18:08.392Z,-7.88
2022-12-18T15:20:49.331Z,-7.89
2022-12-18T15:23:29.619Z,-7.89
2022-12-18T15:25:58.491Z,-7.95
2022-12-18T15:28:40.502Z,-7.84
2022-12-18T15:31:28.058Z,-7.95
2022-12-18T15:33:54.728Z,-8.02
2022-12-18T15:36:26.368Z,-8.37
2022-12-18T15:38:56.146Z,-8.67
2022-12-18T15:41:35.205Z,-9.15
2022-12-18T15:44:04.528Z,-8.12
2022-12-18T15:46:32.104Z,-8.79
2022-12-18T15:49:02.603Z,-8.51
2022-12-18T15:51:33.617Z,-8.59
2022-12-18T15:54:04.780Z,-8.79
2022-12-18T15:56:50.430Z,-8.77
2022-12-18T15:59:22.402Z,-8.62
2022-12-18T16:01:52.409Z,-8.54
2022-12-18T16:04:21.635Z,-8.92
2022-12-18T16:09:36.983Z,-9.53
2022-12-18T16:12:03.877Z,-9.37
2022-12-18T16:14:31.250Z,-8.82
2022-12-18T16:17:00.466Z,-8.67
2022-12-18T16:19:28.454Z,-8.69
2022-12-18T16:21:57.444Z,-9.67
2022-12-18T16:24:26.864Z,-8.67
2022-12-18T16:26:54.528Z,-9.57
2022-12-18T16:29:25.757Z,-9.14
2022-12-18T16:31:54.787Z,-9.15
2022-12-18T16:34:24.936Z,-8.73
2022-12-18T16:37:03.141Z,-8.83
2022-12-18T16:39:33.110Z,-10.73
2022-12-18T16:42:00.081Z,-9.47
2022-12-18T16:44:28.605Z,-9.72
2022-12-18T16:46:55.326Z,-10.43
2022-12-18T16:49:24.781Z,-9.45
2022-12-18T16:51:51.425Z,-9.35
2022-12-18T16:54:19.584Z,-9.40
2022-12-18T16:56:49.876Z,-9.93
2022-12-18T16:59:16.722Z,-9.84
2022-12-18T17:01:44.693Z,-9.32
2022-12-18T17:04:11.891Z,-9.74
2022-12-18T17:06:43.006Z,-9.77
2022-12-18T17:09:19.812Z,-10.31
2022-12-18T17:11:46.447Z,-10.03
2022-12-18T17:14:19.925Z,-10.54
2022-12-18T17:16:47.095Z,-9.63
2022-12-18T17:19:17.400Z,-10.39
2022-12-18T17:21:47.620Z,-10.34
2022-12-18T17:24:14.426Z,-10.97
2022-12-18T17:26:41.184Z,-10.30
2022-12-18T17:29:08.597Z,-9.81
2022-12-18T17:31:35.355Z,-9.81
2022-12-18T17:34:03.355Z,-9.57
2022-12-18T17:36:34.297Z,-10.37
2022-12-18T17:39:02.286Z,-9.09
2022-12-18T17:41:30.146Z,-9.13
2022-12-18T17:43:59.979Z,-9.19
2022-12-18T17:46:31.868Z,-8.79
2022-12-18T17:49:00.862Z,-9.08
2022-12-18T17:51:28.105Z,-9.35
2022-12-18T17:53:54.773Z,-9.27
2022-12-18T17:56:22.911Z,-9.03
2022-12-18T17:58:50.887Z,-9.25
2022-12-18T18:01:21.531Z,-9.31
2022-12-18T18:03:51.555Z,-9.50
2022-12-18T18:06:20.622Z,-9.50
2022-12-18T18:08:47.360Z,-9.96
2022-12-18T18:11:35.849Z,-9.49
2022-12-18T18:14:05.132Z,-9.42
2022-12-18T18:16:41.607Z,-9.42
2022-12-18T18:19:11.857Z,-9.38
2022-12-18T18:21:41.236Z,-9.11
2022-12-18T18:24:09.763Z,-9.27
2022-12-18T18:26:37.577Z,-9.50
2022-12-18T18:29:07.338Z,-8.97
2022-12-18T18:31:40.916Z,-9.15
2022-12-18T18:34:08.541Z,-9.06
2022-12-18T18:36:35.269Z,-9.23
2022-12-18T18:39:02.277Z,-9.56
2022-12-18T18:41:30.595Z,-9.31
2022-12-18T18:43:58.803Z,-9.23
2022-12-18T18:46:29.158Z,-9.31
2022-12-18T18:48:58.901Z,-9.27
2022-12-18T18:51:28.827Z,-9.68
2022-12-18T18:53:58.298Z,-9.49
2022-12-18T18:59:17.431Z,-10.06
2022-12-18T19:01:44.459Z,-9.73
2022-12-18T19:04:11.452Z,-10.56
2022-12-18T19:06:38.221Z,-9.99
2022-12-18T19:09:06.711Z,-10.07
2022-12-18T19:11:55.567Z,-10.23
2022-12-18T19:14:42.681Z,-10.05
2022-12-18T19:17:10.736Z,-9.65
2022-12-18T19:19:37.754Z,-10.20
2022-12-18T19:22:04.683Z,-10.00
2022-12-18T19:24:32.081Z,-10.24
2022-12-18T19:26:58.951Z,-9.83
2022-12-18T19:29:25.832Z,-9.88
2022-12-18T19:31:52.700Z,-10.89
2022-12-18T19:34:19.540Z,-10.42
2022-12-18T19:36:46.596Z,-9.84
2022-12-18T19:39:16.923Z,-9.99
2022-12-18T19:41:44.465Z,-9.67
2022-12-18T19:44:13.692Z,-9.55
2022-12-18T19:46:43.802Z,-9.47
2022-12-18T19:49:17.316Z,-9.46
2022-12-18T19:51:44.866Z,-10.17
2022-12-18T19:54:16.683Z,-9.33
2022-12-18T19:56:45.170Z,-9.59
2022-12-18T19:59:11.985Z,-9.80
2022-12-18T20:01:39.035Z,-9.50
2022-12-18T20:04:06.438Z,-9.70
2022-12-18T20:06:36.181Z,-9.66
2022-12-18T20:09:07.320Z,-9.76
2022-12-18T20:11:38.840Z,-9.39
2022-12-18T20:14:13.081Z,-9.32
2022-12-18T20:16:40.851Z,-9.55
2022-12-18T20:19:08.826Z,-9.30
2022-12-18T20:21:37.032Z,-9.39
2022-12-18T20:24:04.026Z,-9.34
2022-12-18T20:26:30.823Z,-9.33
2022-12-18T20:29:01.895Z,-9.29
2022-12-18T20:31:28.845Z,-9.50
2022-12-18T20:34:01.490Z,-9.24
2022-12-18T20:36:30.799Z,-9.33
2022-12-18T20:39:01.612Z,-9.31
2022-12-18T20:41:31.644Z,-9.23
2022-12-18T20:44:05.394Z,-9.36
2022-12-18T20:46:36.686Z,-9.31
2022-12-18T20:49:03.526Z,-9.28
2022-12-18T20:51:31.721Z,-9.09
2022-12-18T20:53:59.715Z,-9.38
2022-12-18T20:56:33.209Z,-9.15
2022-12-18T20:59:00.948Z,-9.41
2022-12-18T21:01:29.407Z,-9.12
2022-12-18T21:03:56.194Z,-8.91
2022-12-18T21:06:24.124Z,-9.01
2022-12-18T21:08:50.960Z,-9.00
2022-12-18T21:11:45.093Z,-9.10
2022-12-18T21:14:17.385Z,-9.10
2022-12-18T21:16:44.577Z,-9.01
2022-12-18T21:19:20.488Z,-9.14
2022-12-18T21:21:47.400Z,-9.19
2022-12-18T21:24:14.606Z,-9.20
2022-12-18T21:26:46.006Z,-9.33
2022-12-18T21:29:21.357Z,-9.29
2022-12-18T21:31:48.764Z,-9.13
2022-12-18T21:34:21.893Z,-9.22
2022-12-18T21:36:49.466Z,-8.98
2022-12-18T21:39:17.503Z,-9.19
2022-12-18T21:42:03.546Z,-9.40
2022-12-18T21:44:30.987Z,-9.29
2022-12-18T21:47:13.746Z,-9.59
2022-12-18T21:49:49.361Z,-9.58
2022-12-18T21:52:16.945Z,-9.23
2022-12-18T21:54:43.728Z,-9.42
2022-12-18T21:57:10.939Z,-8.97
2022-12-18T21:59:40.517Z,-9.25
2022-12-18T22:02:20.426Z,-8.93
2022-12-18T22:04:47.928Z,-8.93
2022-12-18T22:07:16.750Z,-8.83
2022-12-18T22:09:43.654Z,-9.26
2022-12-18T22:12:13.256Z,-9.50
2022-12-18T22:14:39.904Z,-8.78
2022-12-18T22:17:06.584Z,-9.66
2022-12-18T22:19:38.134Z,-9.01
2022-12-18T22:22:09.719Z,-8.86
2022-12-18T22:24:36.372Z,-8.96
2022-12-18T22:27:03.115Z,-9.11
2022-12-18T22:29:48.510Z,-9.52
2022-12-18T22:32:22.233Z,-9.49
2022-12-18T22:35:03.080Z,-9.17
2022-12-18T22:37:32.919Z,-9.47
2022-12-18T22:39:59.692Z,-9.63
2022-12-18T22:42:30.562Z,-9.96
2022-12-18T22:44:57.228Z,-9.24
2022-12-18T22:47:29.254Z,-9.66
2022-12-18T22:49:56.962Z,-9.13
2022-12-18T22:52:24.853Z,-9.39
2022-12-18T22:54:53.383Z,-8.97
2022-12-18T22:57:21.708Z,-9.34
2022-12-18T22:59:49.349Z,-9.36
2022-12-18T23:02:17.814Z,-9.32
2022-12-18T23:04:45.105Z,-9.53
2022-12-18T23:07:11.837Z,-9.56
2022-12-18T23:09:40.043Z,-9.60
2022-12-18T23:12:07.506Z,-9.38
2022-12-18T23:14:34.303Z,-9.11
2022-12-18T23:17:00.939Z,-9.34
2022-12-18T23:19:27.695Z,-8.90
2022-12-18T23:21:57.809Z,-9.02
2022-12-18T23:24:45.861Z,-8.91
2022-12-18T23:27:12.599Z,-9.51
2022-12-18T23:29:40.418Z,-9.40
2022-12-18T23:32:07.628Z,-8.84
2022-12-18T23:34:34.383Z,-8.95
2022-12-18T23:37:01.205Z,-9.46
2022-12-18T23:39:29.673Z,-9.09
2022-12-18T23:42:00.412Z,-8.80
2022-12-18T23:44:27.898Z,-9.21
2022-12-18T23:46:55.129Z,-8.82
2022-12-18T23:49:22.176Z,-9.38
2022-12-18T23:51:48.908Z,-9.96
2022-12-18T23:54:15.918Z,-8.91
2022-12-18T23:56:42.591Z,-9.62
2022-12-18T23:59:09.478Z,-9.05
